Benton Harbor, MI

12:47 PM EDT on May 23, 2015 (GMT -0400)
MesoWest | | Change Station
CLOSE
Current Station
Personal Weather Station
Location: Benton Harbor, MI
Elevation: 722 ft
Nearby Weather Stations

Elev 722 ft 42.08 °N, 86.36 °W | Updated 1 hour ago

Clear
Clear
67 °F
Feels Like 67 °F
N
5
Wind Variable Wind from NE
Gusts 0.0 mph

Today
High -- | Low -- °F
--% Chance of Precip.
Yesterday
High -- | Low -- °F
Precip. -- in
6:17 AM 9:07 PM
Waxing Crescent, 31% visible
Pressure 30.35 in
Visibility 10.0 miles
Clouds Clear
Dew Point 36 °F
Humidity 31%
Rainfall in
Snow Depth Not available.
UV 9 out of 12
Pollen 9.30 out of 12
Air Quality Not available.
Flu Activity Sporadic
METAR KBEH 231553Z AUTO 13007KT 10SM CLR 21/03 A3035 RMK AO2 SLP278 T02110028 $

More Conditions Fewer Conditions

Pressure 30.35 in
Visibility 10.0 miles
Clouds Clear
Dew Point 36 °F
Humidity 31%
Rainfall in
Snow Depth Not available.
UV 9 out of 12
Pollen 9.30 out of 12
Air Quality Not available.
Flu Activity Sporadic
METAR KBEH 231553Z AUTO 13007KT 10SM CLR 21/03 A3035 RMK AO2 SLP278 T02110028 $

More Conditions Fewer Conditions

10-Day Weather Forecast

Almanac

Astronomy

May. 23, 2015 Rise Set
Actual Time
Civil Twilight
Nautical Twilight
Astronomical Twilight
Moon
Length of Visible Light
Length of Day
Tomorrow will be .
, % of the Moon is Illuminated

Today's Extremes

State Highs State Lows

Community

WunderPhotos

Upload Photos

1,823,516 photos uploaded!

WunderBlogs® & News

Nearby

Air Quality

  Air Quality AQ Index Pollutant
Not available.

Snow Depth

Station Depth Elevation

Earthquake Activity

City Distance Mag. Time & Date
Minimum magnitude displayed is 2.5.

Coastal Water Temperatures

Place Temperature

Stations

Nearby Weather Stations

Station Location Temp. Windchill Dew Point Humidity Wind Precip. Elev Updated Type